Aviation Digital Data Service (ADDS)

Output produced by METARs form (1102 UTC 28 September 2021)
found at http://www.aviationweather.gov/metar/data/
 
VTCC 281030Z 11004KT 080V150 9999 -SHRA FEW025CB SCT035 30/22 Q1009 TEMPO -TSRA
VTCC 281000Z 10005KT 9999 SCT035 30/23 Q1009 NOSIG
VTCC 280930Z 09004KT 060V120 9999 FEW025CB BKN035 30/23 Q1008 NOSIG
VTCC 280900Z 09006KT 060V130 9999 BKN035 30/23 Q1008 NOSIG
VTCC 280830Z 08005KT 360V110 9999 SCT035 31/22 Q1009 NOSIG
VTCC 280800Z 08003KT 340V120 9999 SCT035 30/22 Q1009 NOSIG
VTCC 280730Z VRB03KT 9999 BKN035 31/22 Q1010 NOSIG
VTCC 280700Z 12005KT 070V210 9999 SCT035 30/23 Q1010 NOSIG
VTCC 280630Z VRB04KT 9999 SCT035 30/23 Q1011 NOSIG
VTCC 280600Z 36005KT 310V040 9999 BKN035 30/23 Q1012 NOSIG
VTCC 280530Z 36005KT 270V040 9999 BKN035 29/22 Q1012 NOSIG
VTCC 280500Z 33004KT 240V030 9999 FEW020 BKN035 28/23 Q1013 NOSIG
VTCC 280430Z VRB04KT 9999 FEW018 BKN035 28/23 Q1014 NOSIG
VTCC 280400Z 04005KT 360V080 9999 FEW018 BKN035 28/23 Q1014 NOSIG
VTCC 280330Z 36004KT 320V060 9999 FEW015 BKN035 27/23 Q1014 NOSIG
VTCC 280300Z 33003KT 200V010 9999 FEW015 BKN035 27/23 Q1014 NOSIG
VTCC 280230Z VRB02KT 9999 FEW010 BKN030 26/23 Q1014 NOSIG
VTCC 280200Z VRB02KT 9999 FEW010 BKN030 25/23 Q1014 NOSIG
VTCC 280130Z VRB02KT 9999 FEW010 BKN030 25/23 Q1013 NOSIG
VTCC 280100Z VRB02KT 9999 FEW010 SCT030 24/23 Q1013 NOSIG
VTCC 280030Z 00000KT 9999 FEW015 BKN035 24/23 Q1013 NOSIG
VTCC 280000Z 00000KT 9999 FEW030 23/23 Q1012 NOSIG
VTCC 272330Z 29001KT 9999 FEW035 23/23 Q1012 NOSIG
VTCC 272300Z 28002KT 9999 SCT035 23/23 Q1011 NOSIG
VTCC 272230Z 31002KT 9999 BKN035 23/23 Q1011 NOSIG
VTCC 272200Z 33001KT 9999 BKN035 24/23 Q1011 NOSIG
VTCC 272130Z VRB01KT 9999 BKN035 24/23 Q1011 NOSIG
VTCC 272100Z 00000KT 9999 FEW010 BKN035 24/23 Q1011 NOSIG
VTCC 272030Z VRB01KT 9999 FEW018 BKN035 24/23 Q1011 NOSIG
VTCC 272000Z VRB01KT 9999 FEW018 BKN035 24/23 Q1012 NOSIG
VTCC 271930Z 17003KT 9999 FEW018 BKN035 24/24 Q1012 NOSIG
VTCC 271900Z VRB02KT 9999 BKN035 24/24 Q1012 NOSIG
VTCC 271830Z 16002KT 9999 BKN035 24/23 Q1012 NOSIG
VTCC 271800Z 15002KT 9999 BKN035 24/23 Q1012 NOSIG
VTCC 271730Z VRB01KT 9999 BKN035 24/23 Q1012 NOSIG
VTCC 271700Z VRB01KT 9999 -RA BKN035 24/23 Q1013 NOSIG
VTCC 271630Z 35003KT 320V040 9999 BKN035 24/23 Q1013 NOSIG
VTCC 271600Z 36004KT 9999 BKN035 24/23 Q1013 NOSIG
VTCC 271530Z VRB02KT 9999 BKN035 24/24 Q1013 NOSIG
VTCC 271500Z VRB02KT 9999 BKN035 24/23 Q1013 NOSIG
VTCC 271430Z 31002KT 9999 BKN035 24/23 Q1013 NOSIG
VTCC 271400Z 26002KT 9999 BKN035 24/24 Q1012 NOSIG
VTCC 271330Z 25002KT 9999 -RA BKN035 25/23 Q1012 NOSIG
VTCC 271300Z VRB02KT 9999 BKN035 25/23 Q1011 NOSIG
VTCC 271230Z 36004KT 9999 SCT035 BKN100 25/23 Q1011 NOSIG
VTCC 271200Z 36004KT 9999 FEW035 BKN100 25/23 Q1010 NOSIG
VTCC 271130Z 35006KT 9999 FEW018 BKN035 25/23 Q1010 NOSIG
TAF AMD VTCC 280540Z 2806/2912 36005KT 9999 SCT035 
     TEMPO 2807/2811 18010G25KT 4000 TSRA FEW025CB BKN030 
     BECMG 2809/2811 24005KT 
     BECMG 2816/2818 35005KT 
     BECMG 2900/2902 14005KT 
     TEMPO 2908/2912 06015G25KT 4000 TSRA FEW025CB BKN030